Time;durP1;ratioP1;P1;durP2;ratioP2;P2;SDS_P1;SDS_P2;PMS_P1;PMS_P2;Temp;Humidity;BMP_temperature;BMP_pressure;BME280_temperature;BME280_humidity;BME280_pressure;Samples;Min_cycle;Max_cycle;Signal;HPM_P1;HPM_P2
2024/02/11 00:00:23;;;;;;;15.45;7.45;;;;;;;12.08;62.43;98892.97;5032274;28;20036;-37
2024/02/11 00:02:51;;;;;;;15.85;6.70;;;;;;;12.32;62.59;98875.88;5032339;28;20036;-38
2024/02/11 00:05:16;;;;;;;14.68;6.57;;;;;;;12.31;62.11;98870.75;5032601;28;20111;-40
2024/02/11 00:07:43;;;;;;;11.32;6.10;;;;;;;12.32;62.02;98875.06;5032221;28;20470;-40
2024/02/11 00:10:09;;;;;;;10.82;5.20;;;;;;;12.32;61.11;98869.72;5032209;28;20087;-40
2024/02/11 00:12:35;;;;;;;9.98;5.13;;;;;;;12.37;61.29;98874.34;5032291;28;20023;-39
2024/02/11 00:15:03;;;;;;;9.90;5.10;;;;;;;12.42;60.94;98872.59;5031869;28;20131;-39
2024/02/11 00:17:28;;;;;;;14.93;5.35;;;;;;;12.54;59.91;98853.06;5031784;28;20164;-39
2024/02/11 00:19:53;;;;;;;8.77;4.78;;;;;;;12.32;60.31;98854.53;5032048;28;20035;-38
2024/02/11 00:22:19;;;;;;;12.02;4.63;;;;;;;12.20;60.46;98861.72;5032347;28;20429;-36
2024/02/11 00:24:44;;;;;;;12.60;4.28;;;;;;;12.09;60.95;98842.06;5032663;28;20029;-40
2024/02/11 00:27:12;;;;;;;9.32;4.95;;;;;;;12.08;61.31;98848.44;5032365;28;20440;-39
2024/02/11 00:29:39;;;;;;;8.80;4.28;;;;;;;12.21;61.35;98838.56;5032125;28;20052;-38
2024/02/11 00:32:05;;;;;;;10.95;4.30;;;;;;;12.26;60.42;98834.13;5032229;28;20435;-38
2024/02/11 00:34:31;;;;;;;10.05;4.68;;;;;;;12.35;59.99;98857.78;5032127;28;20533;-39
2024/02/11 00:36:57;;;;;;;9.48;4.50;;;;;;;12.21;60.44;98855.38;5032439;28;20363;-39
2024/02/11 00:39:22;;;;;;;8.63;4.40;;;;;;;12.35;60.41;98868.44;5032463;28;20025;-39
2024/02/11 00:41:48;;;;;;;6.80;3.90;;;;;;;12.34;60.08;98886.31;5032396;28;20025;-36
2024/02/11 00:44:15;;;;;;;7.88;3.33;;;;;;;12.42;59.64;98895.81;5032205;28;20389;-36
2024/02/11 00:46:40;;;;;;;8.90;3.90;;;;;;;12.37;59.69;98893.81;5032209;28;20033;-36
2024/02/11 00:49:07;;;;;;;10.07;3.72;;;;;;;12.40;58.07;98881.88;5032134;28;20033;-36
2024/02/11 00:51:33;;;;;;;8.20;3.70;;;;;;;12.58;57.37;98889.72;5031834;28;20049;-39
2024/02/11 00:53:59;;;;;;;9.15;3.80;;;;;;;12.59;56.90;98911.88;5032094;28;20056;-39
2024/02/11 00:56:25;;;;;;;9.35;3.83;;;;;;;12.58;57.23;98894.25;5031915;28;20021;-40
2024/02/11 00:58:51;;;;;;;7.35;3.60;;;;;;;12.57;57.46;98885.44;5031684;28;20025;-39
2024/02/11 01:01:16;;;;;;;6.32;3.70;;;;;;;12.57;56.68;98882.75;5031525;28;20026;-36
2024/02/11 01:03:42;;;;;;;6.60;3.80;;;;;;;12.36;57.82;98912.75;5031735;28;20025;-39
2024/02/11 01:06:10;;;;;;;9.48;3.80;;;;;;;12.69;56.71;98928.09;5031385;28;20021;-38
2024/02/11 01:08:35;;;;;;;6.25;3.67;;;;;;;12.43;57.56;98927.59;5031453;28;20051;-39
2024/02/11 01:11:01;;;;;;;8.60;3.75;;;;;;;12.30;57.75;98898.50;5031552;28;20473;-36
2024/02/11 01:13:26;;;;;;;11.30;4.03;;;;;;;12.31;56.80;98889.44;5031535;28;20025;-26
2024/02/11 01:15:51;;;;;;;8.80;4.00;;;;;;;12.55;56.22;98889.41;5031629;28;20104;-26
2024/02/11 01:18:18;;;;;;;10.23;4.15;;;;;;;12.65;55.87;98887.72;5031170;28;20658;-25
2024/02/11 01:20:43;;;;;;;6.97;3.75;;;;;;;12.65;55.66;98877.03;5031593;28;20563;-26
2024/02/11 01:23:09;;;;;;;9.23;4.20;;;;;;;12.54;56.17;98874.41;5031363;28;20037;-25
2024/02/11 01:25:35;;;;;;;6.32;3.70;;;;;;;12.67;56.28;98868.81;5031345;28;20055;-26
2024/02/11 01:28:00;;;;;;;8.20;3.40;;;;;;;12.54;56.92;98875.22;5031705;28;20021;-26
2024/02/11 01:30:25;;;;;;;8.73;3.50;;;;;;;12.39;56.86;98865.06;5031280;28;20029;-26
2024/02/11 01:32:51;;;;;;;8.63;3.38;;;;;;;12.49;56.59;98854.59;5031148;28;20105;-26
2024/02/11 01:35:16;;;;;;;6.70;3.13;;;;;;;12.47;57.49;98840.69;5031273;28;20025;-26
2024/02/11 01:37:42;;;;;;;5.28;3.13;;;;;;;12.15;59.64;98855.47;5031428;28;20108;-26
2024/02/11 01:40:15;;;;;;;6.60;3.00;;;;;;;12.04;59.53;98868.63;5031485;28;20063;-25
2024/02/11 01:42:41;;;;;;;6.70;3.10;;;;;;;12.00;59.97;98851.47;5030991;28;20021;-25
2024/02/11 01:45:09;;;;;;;6.35;3.22;;;;;;;12.21;58.56;98846.56;5030761;28;20027;-26
2024/02/11 01:47:36;;;;;;;5.35;2.90;;;;;;;12.36;58.38;98852.19;5030842;28;20028;-25
2024/02/11 01:50:08;;;;;;;7.05;2.85;;;;;;;12.42;58.17;98843.25;5031008;28;20036;-26
2024/02/11 01:52:36;;;;;;;5.15;2.92;;;;;;;12.57;57.29;98816.03;5030896;28;20041;-25
2024/02/11 01:55:04;;;;;;;7.65;3.10;;;;;;;12.36;57.92;98816.72;5031025;28;20033;-26
2024/02/11 01:57:30;;;;;;;6.15;3.03;;;;;;;12.52;57.30;98842.63;5030872;28;20060;-26
2024/02/11 01:59:55;;;;;;;6.88;3.00;;;;;;;12.52;57.89;98846.09;5030617;28;20045;-26
2024/02/11 02:02:25;;;;;;;7.18;3.22;;;;;;;12.50;57.68;98839.38;5030934;28;20025;-26
2024/02/11 02:04:52;;;;;;;;;;;;;;;12.40;57.51;98829.34;5031240;28;20454;-26
2024/02/11 02:07:18;;;;;;;5.05;2.97;;;;;;;12.55;57.22;98839.50;5030575;28;19909;-26
2024/02/11 02:09:43;;;;;;;4.53;2.90;;;;;;;12.36;57.65;98854.06;5030946;28;20025;-26
2024/02/11 02:12:09;;;;;;;5.88;3.00;;;;;;;12.44;57.43;98843.81;5030767;28;20105;-26
2024/02/11 02:14:34;;;;;;;6.97;3.22;;;;;;;12.44;57.63;98821.66;5030142;28;20032;-25
2024/02/11 02:16:59;;;;;;;7.97;4.28;;;;;;;12.63;56.55;98800.94;5031085;28;20021;-25
2024/02/11 02:19:27;;;;;;;6.13;3.50;;;;;;;12.29;57.73;98835.50;5034711;28;20068;-25
2024/02/11 02:21:54;;;;;;;7.28;3.58;;;;;;;11.98;58.76;98842.09;5033436;28;20144;-25
2024/02/11 02:24:20;;;;;;;7.97;4.05;;;;;;;12.20;57.93;98834.25;5015004;28;20105;-25
2024/02/11 02:26:46;;;;;;;8.70;4.10;;;;;;;12.45;57.21;98837.44;5014776;28;20523;-25
2024/02/11 02:29:12;;;;;;;8.57;3.90;;;;;;;12.57;56.24;98833.94;5025506;28;20040;-25
2024/02/11 02:31:37;;;;;;;10.85;4.10;;;;;;;12.36;56.57;98817.53;5033113;28;20013;-27
2024/02/11 02:34:02;;;;;;;7.05;3.95;;;;;;;12.42;57.20;98816.56;5034392;28;20099;-26
2024/02/11 02:36:28;;;;;;;7.93;4.18;;;;;;;12.46;56.97;98817.69;5034429;28;20033;-25
2024/02/11 02:38:53;;;;;;;9.52;4.53;;;;;;;12.58;56.24;98809.63;5034324;28;20029;-26
2024/02/11 02:41:19;;;;;;;8.95;4.32;;;;;;;12.75;55.70;98804.34;5034090;28;20080;-26
2024/02/11 02:43:46;;;;;;;10.43;4.10;;;;;;;12.59;56.47;98807.81;5034122;28;20021;-26
2024/02/11 02:46:12;;;;;;;9.30;4.32;;;;;;;12.63;55.83;98798.25;5034276;28;20028;-26
2024/02/11 02:48:38;;;;;;;7.45;4.10;;;;;;;12.28;57.67;98804.53;5034320;28;20096;-26
2024/02/11 02:51:03;;;;;;;8.23;4.03;;;;;;;12.40;56.57;98818.66;5034224;28;20075;-26
2024/02/11 02:53:29;;;;;;;9.68;3.88;;;;;;;12.43;56.50;98820.88;5039878;28;20044;-26
2024/02/11 02:55:56;;;;;;;8.30;3.83;;;;;;;12.45;56.50;98824.09;5039131;28;20457;-26
2024/02/11 02:58:23;;;;;;;7.43;3.97;;;;;;;12.37;57.38;98821.78;5044291;28;20112;-26
2024/02/11 03:00:48;;;;;;;8.95;3.60;;;;;;;12.39;57.29;98846.38;5042380;28;20437;-26
2024/02/11 03:03:14;;;;;;;7.55;3.80;;;;;;;12.46;57.05;98849.72;5050788;28;20496;-26
2024/02/11 03:05:41;;;;;;;7.90;3.78;;;;;;;12.48;56.91;98839.63;5039465;28;20074;-26
2024/02/11 03:08:07;;;;;;;7.65;3.78;;;;;;;12.42;56.95;98843.25;5040576;28;20033;-25
2024/02/11 03:10:33;;;;;;;7.60;3.58;;;;;;;12.51;57.36;98833.81;5042020;28;20039;-26
2024/02/11 03:13:01;;;;;;;9.70;3.45;;;;;;;12.51;57.76;98830.34;5044325;28;20020;-26
2024/02/11 03:15:27;;;;;;;7.55;3.20;;;;;;;12.33;58.46;98828.66;5041289;28;20029;-26
2024/02/11 03:17:53;;;;;;;6.35;3.35;;;;;;;12.42;58.30;98808.56;5041903;28;20045;-25
2024/02/11 03:20:18;;;;;;;6.32;3.22;;;;;;;12.41;58.21;98808.78;5042420;28;20021;-26
2024/02/11 03:22:44;;;;;;;8.75;3.35;;;;;;;12.23;58.63;98807.94;5040363;28;20209;-26
2024/02/11 03:25:09;;;;;;;7.07;3.20;;;;;;;12.61;57.56;98813.72;5046571;28;20056;-26
2024/02/11 03:27:37;;;;;;;7.28;3.40;;;;;;;12.55;57.83;98810.13;5044181;28;20025;-26
2024/02/11 03:30:05;;;;;;;6.35;3.38;;;;;;;12.47;58.16;98792.66;5041648;28;20030;-26
2024/02/11 03:32:31;;;;;;;6.28;3.13;;;;;;;12.25;58.82;98789.03;5044106;28;20456;-26
2024/02/11 03:34:56;;;;;;;7.63;3.65;;;;;;;12.63;57.61;98809.75;5038324;28;20478;-26
2024/02/11 03:37:21;;;;;;;9.02;3.58;;;;;;;12.75;57.65;98798.19;5033148;28;20108;-26
2024/02/11 03:39:49;;;;;;;9.27;3.50;;;;;;;12.58;58.27;98803.50;5037181;28;20020;-26
2024/02/11 03:42:14;;;;;;;7.35;3.22;;;;;;;12.39;59.01;98818.91;5041883;28;20149;-26
2024/02/11 03:44:40;;;;;;;7.45;3.20;;;;;;;12.24;59.36;98830.06;5042676;28;20146;-26
2024/02/11 03:47:05;;;;;;;7.68;3.50;;;;;;;12.26;59.64;98838.66;5044157;28;20047;-26
2024/02/11 03:49:30;;;;;;;5.65;3.40;;;;;;;12.25;59.32;98842.38;5043255;28;20047;-26
2024/02/11 03:51:56;;;;;;;6.60;3.60;;;;;;;12.40;58.99;98839.22;5033064;28;20056;-26
2024/02/11 03:54:22;;;;;;;6.93;3.40;;;;;;;12.46;58.35;98833.72;5033045;28;20481;-25
2024/02/11 03:56:48;;;;;;;7.80;3.40;;;;;;;12.40;58.22;98816.00;5032691;28;20515;-26
2024/02/11 03:59:15;;;;;;;6.80;3.28;;;;;;;12.43;59.06;98822.69;5033171;28;20056;-26
2024/02/11 04:01:40;;;;;;;5.22;3.33;;;;;;;12.31;59.03;98809.41;5033018;28;20052;-27
2024/02/11 04:04:06;;;;;;;7.32;3.38;;;;;;;12.06;59.66;98799.84;5032930;28;20426;-25
2024/02/11 04:06:34;;;;;;;7.00;3.58;;;;;;;12.40;58.83;98813.31;5032477;28;20128;-25
2024/02/11 04:09:00;;;;;;;8.07;3.70;;;;;;;12.43;58.84;98812.88;5033157;28;20028;-25
2024/02/11 04:11:29;;;;;;;7.95;3.50;;;;;;;12.15;59.31;98802.16;5032680;28;20083;-25
2024/02/11 04:13:55;;;;;;;9.45;3.83;;;;;;;11.98;60.68;98802.09;5032501;28;20032;-25
2024/02/11 04:16:22;;;;;;;9.25;3.75;;;;;;;11.92;60.54;98801.97;5032469;28;20034;-26
2024/02/11 04:18:50;;;;;;;8.80;3.42;;;;;;;12.07;60.29;98808.66;5032472;28;20037;-25
2024/02/11 04:21:20;;;;;;;7.22;3.63;;;;;;;11.90;60.63;98803.28;5032586;28;20025;-24
2024/02/11 04:23:48;;;;;;;9.23;3.58;;;;;;;11.98;60.28;98802.91;5032291;28;20485;-26
2024/02/11 04:26:15;;;;;;;9.57;3.58;;;;;;;12.14;58.83;98801.34;5032425;28;20025;-26
2024/02/11 04:28:41;;;;;;;8.27;3.75;;;;;;;12.08;58.13;98800.44;5032627;28;20021;-25
2024/02/11 04:31:10;;;;;;;10.38;4.55;;;;;;;11.91;57.99;98803.00;5032432;28;20385;-25
2024/02/11 04:33:37;;;;;;;;;;;;;;;11.93;58.45;98808.13;5032485;28;20025;-25
2024/02/11 04:36:04;;;;;;;11.57;3.80;;;;;;;11.80;58.31;98801.16;5032046;28;19920;-25
2024/02/11 04:38:30;;;;;;;10.18;3.80;;;;;;;12.18;57.05;98794.47;5032429;28;20104;-25
2024/02/11 04:40:56;;;;;;;6.43;3.75;;;;;;;12.25;56.29;98808.50;5031354;28;20022;-25
2024/02/11 04:43:22;;;;;;;9.02;3.83;;;;;;;12.40;55.66;98813.31;5032155;28;20028;-25
2024/02/11 04:45:47;;;;;;;6.68;3.67;;;;;;;12.38;55.71;98807.41;5031967;28;20104;-25
2024/02/11 04:48:12;;;;;;;9.55;3.83;;;;;;;12.47;54.78;98807.84;5031905;28;20025;-25
2024/02/11 04:50:38;;;;;;;8.77;3.90;;;;;;;12.47;55.08;98799.81;5031854;28;20029;-25
2024/02/11 04:53:07;;;;;;;8.48;4.20;;;;;;;12.54;55.83;98799.69;5031761;28;20104;-25
2024/02/11 04:55:38;;;;;;;8.15;3.72;;;;;;;12.60;55.52;98793.41;5032005;28;20044;-25
2024/02/11 04:58:07;;;;;;;7.72;3.88;;;;;;;12.46;54.99;98796.34;5032014;28;20029;-25
2024/02/11 05:00:36;;;;;;;10.20;4.13;;;;;;;12.46;55.46;98820.38;5031800;28;20029;-26
2024/02/11 05:03:06;;;;;;;18.40;7.55;;;;;;;12.59;55.28;98799.78;5031749;28;20048;-26
2024/02/11 05:05:33;;;;;;;11.43;4.05;;;;;;;12.60;54.61;98794.19;5032440;28;20125;-25
2024/02/11 05:08:03;;;;;;;7.88;3.63;;;;;;;12.68;54.65;98801.03;5052446;28;20087;-26
2024/02/11 05:10:30;;;;;;;;;;;;;;;12.66;54.59;98792.44;5052443;28;20469;-26
2024/02/11 05:12:59;;;;;;;6.65;3.30;;;;;;;12.48;54.19;98799.59;5052092;28;19912;-26
2024/02/11 05:15:24;;;;;;;8.48;3.90;;;;;;;12.65;53.00;98815.66;5051692;28;20647;-26
2024/02/11 05:17:51;;;;;;;6.68;3.63;;;;;;;12.89;52.29;98808.34;5051872;28;20049;-26
2024/02/11 05:20:27;;;;;;;11.38;3.83;;;;;;;12.71;53.64;98800.53;5051868;28;20036;-26
2024/02/11 05:22:57;;;;;;;11.30;4.18;;;;;;;12.71;54.36;98782.66;5052097;28;20094;-26
2024/02/11 05:25:24;;;;;;;8.55;3.75;;;;;;;12.51;53.91;98796.47;5051676;28;20048;-25
2024/02/11 05:27:57;;;;;;;10.32;4.13;;;;;;;12.95;53.43;98800.41;5051676;28;20036;-26
2024/02/11 05:30:26;;;;;;;7.68;3.85;;;;;;;13.08;64.03;98797.44;5011992;28;20030;-26
2024/02/11 05:32:57;;;;;;;9.43;3.92;;;;;;;13.40;55.70;98794.19;5015868;28;20062;-26
2024/02/11 05:35:23;;;;;;;9.38;4.05;;;;;;;13.78;54.93;98805.94;5031554;28;20041;-26
2024/02/11 05:37:57;;;;;;;9.63;4.10;;;;;;;13.86;52.08;98798.31;5031941;28;20103;-24
2024/02/11 05:40:29;;;;;;;13.50;4.43;;;;;;;13.61;58.11;98809.47;5031488;28;20064;-25
2024/02/11 05:42:55;;;;;;;10.48;4.85;;;;;;;13.73;53.79;98793.34;5031505;28;20064;-25
2024/02/11 05:45:21;;;;;;;8.95;4.50;;;;;;;13.94;60.04;98802.44;5031442;28;20029;-26
2024/02/11 05:47:53;;;;;;;9.32;4.72;;;;;;;14.34;51.85;98795.13;5031278;28;20025;-25
2024/02/11 05:50:20;;;;;;;9.38;5.00;;;;;;;14.31;52.39;98800.97;5031428;28;20048;-28
2024/02/11 05:52:46;;;;;;;7.80;4.53;;;;;;;14.00;54.90;98808.66;5030409;28;20095;-25
2024/02/11 05:55:16;;;;;;;9.20;5.00;;;;;;;13.64;53.85;98802.81;5031189;28;20024;-26
2024/02/11 05:57:42;;;;;;;15.60;7.13;;;;;;;13.64;56.43;98816.19;5031704;28;20021;-26
2024/02/11 06:00:12;;;;;;;12.38;6.60;;;;;;;14.46;58.74;98809.97;5031562;28;20044;-26
2024/02/11 06:02:48;;;;;;;10.52;5.20;;;;;;;14.54;51.55;98829.34;5031093;28;20471;-27
2024/02/11 06:05:15;;;;;;;16.60;5.10;;;;;;;13.86;52.86;98827.72;5030959;28;20056;-26
2024/02/11 06:07:45;;;;;;;11.63;5.20;;;;;;;13.45;53.98;98832.50;5031050;28;20112;-27
2024/02/11 06:10:11;;;;;;;10.27;5.32;;;;;;;13.50;53.77;98821.09;5031203;28;20037;-27
2024/02/11 06:12:38;;;;;;;11.65;4.88;;;;;;;13.34;53.30;98814.69;5030969;28;20029;-26
2024/02/11 06:15:07;;;;;;;10.88;4.90;;;;;;;13.39;53.72;98835.34;5030645;28;20052;-26
2024/02/11 06:17:33;;;;;;;11.75;5.35;;;;;;;13.05;54.21;98840.63;5030547;28;20180;-26
2024/02/11 06:19:59;;;;;;;11.98;5.25;;;;;;;13.21;54.97;98831.00;5030503;28;20065;-26
2024/02/11 06:22:25;;;;;;;12.20;5.35;;;;;;;12.97;56.37;98833.84;5030214;28;20041;-27
2024/02/11 06:24:51;;;;;;;12.43;6.63;;;;;;;13.14;53.93;98825.84;5030453;28;20021;-26
2024/02/11 06:27:20;;;;;;;14.82;6.00;;;;;;;13.10;54.05;98840.72;5030568;28;20033;-26
2024/02/11 06:29:46;;;;;;;12.95;6.85;;;;;;;12.93;55.02;98848.72;5030472;28;20698;-26
2024/02/11 06:32:11;;;;;;;17.13;6.03;;;;;;;12.94;54.66;98845.00;5030967;28;20021;-26
2024/02/11 06:34:37;;;;;;;14.98;6.30;;;;;;;13.00;55.34;98824.53;5030741;28;20026;-26
2024/02/11 06:37:03;;;;;;;13.80;7.07;;;;;;;13.05;54.66;98846.78;5030250;28;20432;-26
2024/02/11 06:39:29;;;;;;;16.17;7.13;;;;;;;13.58;53.96;98834.03;5030565;28;20444;-26
2024/02/11 06:41:56;;;;;;;12.65;6.18;;;;;;;13.85;52.15;98817.28;5030369;28;20700;-27
2024/02/11 06:44:26;;;;;;;11.63;5.60;;;;;;;13.54;52.71;98819.53;5030572;28;20061;-27
2024/02/11 06:46:56;;;;;;;7.85;4.32;;;;;;;13.57;52.49;98823.56;5030365;28;20041;-27
2024/02/11 06:49:25;;;;;;;11.68;4.75;;;;;;;13.98;51.64;98806.22;5030175;28;20034;-27
2024/02/11 06:51:51;;;;;;;13.90;5.05;;;;;;;14.33;50.42;98822.94;5030383;28;20453;-26
2024/02/11 06:54:20;;;;;;;9.30;4.72;;;;;;;14.08;51.57;98811.69;5030445;28;20030;-26
2024/02/11 06:56:47;;;;;;;14.65;4.90;;;;;;;14.16;51.18;98815.78;5029979;28;20033;-26
2024/02/11 06:59:14;;;;;;;12.07;5.30;;;;;;;14.20;51.03;98814.25;5029966;28;20033;-26
2024/02/11 07:01:41;;;;;;;8.57;4.13;;;;;;;14.57;49.88;98826.19;5029967;28;20110;-26
2024/02/11 07:04:08;;;;;;;13.00;3.50;;;;;;;14.81;49.51;98816.81;5032563;28;20112;-26
2024/02/11 07:06:35;;;;;;;9.50;4.18;;;;;;;15.05;48.75;98814.59;5033896;28;20033;-26
2024/02/11 07:09:01;;;;;;;5.85;3.03;;;;;;;15.37;47.40;98813.75;5033692;28;20052;-26
2024/02/11 07:11:28;;;;;;;6.53;3.00;;;;;;;15.80;46.36;98819.16;5033715;28;20084;-27
2024/02/11 07:13:53;;;;;;;5.80;2.55;;;;;;;16.05;44.92;98817.66;5034015;28;20030;-27
2024/02/11 07:16:18;;;;;;;13.25;2.80;;;;;;;15.92;45.61;98825.13;5033531;28;20497;-27
2024/02/11 07:18:44;;;;;;;4.85;2.65;;;;;;;16.02;45.40;98824.38;5033532;28;20125;-27
2024/02/11 07:21:12;;;;;;;5.75;2.85;;;;;;;16.35;45.49;98809.72;5033976;28;20059;-26
2024/02/11 07:23:40;;;;;;;6.87;3.03;;;;;;;16.46;44.30;98809.75;5034005;28;20028;-27
2024/02/11 07:26:07;;;;;;;6.82;2.60;;;;;;;16.68;43.53;98815.72;5046239;28;20040;-26
2024/02/11 07:28:33;;;;;;;5.30;2.58;;;;;;;16.73;43.28;98818.41;5053922;28;20033;-27
2024/02/11 07:30:59;;;;;;;7.45;3.08;;;;;;;16.75;43.89;98799.34;5053679;28;20032;-27
2024/02/11 07:33:24;;;;;;;9.00;3.15;;;;;;;16.90;43.32;98812.00;5053604;28;20021;-27
2024/02/11 07:35:50;;;;;;;13.98;6.68;;;;;;;16.54;43.95;98809.22;5052550;28;20534;-28
2024/02/11 07:38:15;;;;;;;14.73;5.57;;;;;;;16.16;45.28;98806.72;5033461;28;20109;-27
2024/02/11 07:40:41;;;;;;;16.25;7.03;;;;;;;15.75;45.83;98819.94;5037116;28;20572;-27
2024/02/11 07:43:09;;;;;;;14.13;5.90;;;;;;;15.81;46.15;98828.81;5038801;28;20497;-27
2024/02/11 07:45:38;;;;;;;11.20;5.28;;;;;;;16.05;45.67;98844.50;5033338;28;20462;-26
2024/02/11 07:48:07;;;;;;;13.23;5.30;;;;;;;15.63;46.03;98848.78;5033365;28;20025;-27
2024/02/11 07:50:34;;;;;;;;;;;;;;;15.92;45.94;98835.84;5033721;28;20466;-25
2024/02/11 07:52:59;;;;;;;14.02;5.95;;;;;;;16.06;45.90;98830.03;5033301;28;20007;-27
2024/02/11 07:55:25;;;;;;;14.95;6.30;;;;;;;16.40;45.26;98828.53;5038155;28;20113;-27
2024/02/11 07:57:50;;;;;;;10.50;5.07;;;;;;;16.27;44.89;98837.06;5032978;28;20060;-27
2024/02/11 08:00:16;;;;;;;18.52;8.90;;;;;;;16.50;44.25;98851.91;5032974;28;20022;-27
2024/02/11 08:02:41;;;;;;;23.67;10.70;;;;;;;16.49;44.02;98854.91;5023527;28;20060;-28
2024/02/11 08:05:07;;;;;;;27.27;10.85;;;;;;;16.27;45.12;98847.03;5040792;28;20404;-28
2024/02/11 08:07:33;;;;;;;16.48;6.63;;;;;;;16.38;44.69;98841.41;5039821;28;20029;-27
2024/02/11 08:09:59;;;;;;;16.60;7.47;;;;;;;16.37;44.36;98842.50;5032863;28;20099;-27
2024/02/11 08:12:24;;;;;;;15.60;7.65;;;;;;;15.98;46.33;98831.31;5040825;28;20029;-27
2024/02/11 08:14:49;;;;;;;10.38;5.20;;;;;;;16.00;45.76;98824.63;5042170;28;20096;-27
2024/02/11 08:17:15;;;;;;;14.38;6.57;;;;;;;15.92;46.29;98813.59;5040654;28;20077;-27
2024/02/11 08:19:41;;;;;;;12.13;5.25;;;;;;;16.03;45.84;98812.56;5043579;28;20036;-28
2024/02/11 08:22:06;;;;;;;10.60;5.20;;;;;;;16.10;46.03;98806.94;5036010;28;20031;-28
2024/02/11 08:24:35;;;;;;;14.30;5.97;;;;;;;16.13;45.66;98804.56;5048562;28;20671;-26
2024/02/11 08:27:01;;;;;;;10.10;5.13;;;;;;;16.54;45.23;98820.78;5041535;28;20025;-28
2024/02/11 08:29:28;;;;;;;14.95;6.15;;;;;;;16.60;44.50;98822.44;5041085;28;20477;-27
2024/02/11 08:31:54;;;;;;;11.32;5.45;;;;;;;16.70;44.49;98812.78;5041281;28;20033;-29
2024/02/11 08:34:19;;;;;;;9.27;4.05;;;;;;;16.79;44.30;98821.91;5039430;28;20017;-26
2024/02/11 08:36:45;;;;;;;11.95;3.90;;;;;;;16.70;44.42;98824.31;5040828;28;20342;-27
2024/02/11 08:39:10;;;;;;;10.38;3.80;;;;;;;16.98;43.80;98819.53;5042817;28;20032;-27
2024/02/11 08:41:36;;;;;;;10.25;3.40;;;;;;;17.04;43.86;98821.19;5041043;28;20022;-26
2024/02/11 08:44:02;;;;;;;10.40;4.35;;;;;;;17.15;44.13;98816.59;5042890;28;20032;-28
2024/02/11 08:46:27;;;;;;;10.68;4.78;;;;;;;17.26;43.92;98807.44;5042992;28;20024;-27
2024/02/11 08:48:52;;;;;;;13.00;5.35;;;;;;;17.45;43.73;98804.22;5037830;28;20025;-28
2024/02/11 08:51:21;;;;;;;12.10;5.45;;;;;;;17.15;44.13;98814.72;5039711;28;20476;-27
2024/02/11 08:53:46;;;;;;;9.57;5.05;;;;;;;17.20;43.60;98801.25;5037922;28;20032;-28
2024/02/11 08:56:12;;;;;;;13.18;4.78;;;;;;;17.14;43.75;98804.25;5041974;28;20029;-28
2024/02/11 08:58:46;;;;;;;10.43;5.00;;;;;;;17.24;43.37;98795.34;5040675;28;20610;-27
2024/02/11 09:01:12;;;;;;;10.23;4.22;;;;;;;17.46;43.08;98803.13;5038195;28;20060;-27
2024/02/11 09:03:37;;;;;;;12.32;5.30;;;;;;;17.39;43.50;98795.34;5039435;28;20099;-28
2024/02/11 09:06:05;;;;;;;11.15;4.57;;;;;;;17.56;42.68;98801.22;5037544;28;20108;-29
2024/02/11 09:08:32;;;;;;;9.02;4.20;;;;;;;17.66;42.51;98795.00;5043377;28;20029;-28
2024/02/11 09:10:57;;;;;;;15.82;4.60;;;;;;;17.71;42.74;98802.28;5043143;28;20067;-26
2024/02/11 09:13:23;;;;;;;13.63;4.00;;;;;;;17.73;42.78;98797.44;5046321;28;20025;-27
2024/02/11 09:15:49;;;;;;;11.50;5.90;;;;;;;17.97;42.31;98795.78;5041385;28;20033;-26
2024/02/11 09:18:19;;;;;;;12.18;4.85;;;;;;;17.96;42.56;98796.03;5036173;28;20044;-26
2024/02/11 09:20:45;;;;;;;13.30;5.25;;;;;;;18.12;42.62;98802.94;5036599;28;20033;-27
2024/02/11 09:23:10;;;;;;;12.68;4.03;;;;;;;18.47;41.73;98803.88;5037823;28;20025;-28
2024/02/11 09:25:36;;;;;;;9.75;4.38;;;;;;;18.62;41.61;98800.28;5042957;28;20436;-28
2024/02/11 09:28:03;;;;;;;12.35;4.40;;;;;;;18.49;41.99;98795.53;5041100;28;20029;-27
2024/02/11 09:30:29;;;;;;;9.40;4.78;;;;;;;18.46;42.01;98786.09;5040489;28;20462;-27
2024/02/11 09:32:54;;;;;;;13.82;4.90;;;;;;;18.44;42.22;98784.78;5038091;28;20028;-28
2024/02/11 09:35:21;;;;;;;12.50;4.50;;;;;;;18.58;41.86;98783.06;5039467;28;20108;-28
2024/02/11 09:37:47;;;;;;;11.07;4.70;;;;;;;18.53;41.75;98778.50;5038233;28;20057;-28
2024/02/11 09:40:13;;;;;;;7.93;3.70;;;;;;;18.56;42.20;98780.66;5039910;28;20026;-28
2024/02/11 09:42:39;;;;;;;8.27;4.10;;;;;;;18.53;42.71;98781.22;5040622;28;20101;-29
2024/02/11 09:45:05;;;;;;;11.20;3.90;;;;;;;18.58;42.82;98787.63;5040456;28;20521;-28
2024/02/11 09:47:34;;;;;;;7.47;3.35;;;;;;;18.58;43.25;98793.81;5041881;28;20033;-27
2024/02/11 09:50:03;;;;;;;9.50;3.00;;;;;;;18.45;43.61;98783.66;5037814;28;20535;-28
2024/02/11 09:52:29;;;;;;;8.95;3.30;;;;;;;18.50;43.50;98770.19;5041244;28;20104;-27
2024/02/11 09:54:55;;;;;;;8.57;3.45;;;;;;;18.67;43.26;98780.59;5040484;28;20561;-26
2024/02/11 09:57:20;;;;;;;9.68;3.67;;;;;;;19.01;42.77;98769.03;5039748;28;20021;-27
2024/02/11 09:59:46;;;;;;;9.05;3.50;;;;;;;18.82;43.01;98758.13;5034447;28;20026;-27
2024/02/11 10:02:21;;;;;;;8.35;2.90;;;;;;;19.00;42.08;98746.69;5037139;28;20108;-28
2024/02/11 10:04:49;;;;;;;16.17;5.20;;;;;;;18.95;41.75;98738.63;5041647;28;20033;-28
2024/02/11 10:07:26;;;;;;;9.68;4.50;;;;;;;18.80;42.43;98719.88;5032910;28;20033;-27
2024/02/11 10:09:56;;;;;;;7.28;3.40;;;;;;;18.74;42.43;98727.19;5025198;28;20025;-27
2024/02/11 10:12:22;;;;;;;8.35;3.72;;;;;;;18.97;42.09;98733.75;5035545;28;20448;-28
2024/02/11 10:14:57;;;;;;;8.77;3.13;;;;;;;19.21;42.13;98738.38;5035637;28;20469;-28
2024/02/11 10:17:24;;;;;;;11.45;3.63;;;;;;;19.03;42.81;98735.31;5040579;28;20052;-29
2024/02/11 10:19:53;;;;;;;11.25;3.55;;;;;;;19.10;42.96;98741.19;5042002;28;20033;-27
2024/02/11 10:22:21;;;;;;;9.60;3.85;;;;;;;18.94;43.31;98726.22;5035404;28;20033;-28
2024/02/11 10:24:49;;;;;;;9.85;4.35;;;;;;;19.25;42.53;98731.34;5028016;28;20033;-27
2024/02/11 10:27:18;;;;;;;9.20;4.45;;;;;;;19.16;43.01;98712.28;5030867;28;20081;-27
2024/02/11 10:29:47;;;;;;;11.15;4.40;;;;;;;19.26;42.67;98712.16;5030452;28;20038;-33
2024/02/11 10:32:14;;;;;;;11.13;4.40;;;;;;;19.27;42.40;98703.00;5029758;28;20424;-27
2024/02/11 10:34:42;;;;;;;11.18;4.40;;;;;;;19.21;42.41;98716.81;5029876;28;20113;-28
2024/02/11 10:37:12;;;;;;;10.50;3.90;;;;;;;19.03;42.51;98721.81;5031659;28;20040;-27
2024/02/11 10:39:44;;;;;;;12.15;4.30;;;;;;;18.87;42.99;98712.28;5033638;28;20033;-26
2024/02/11 10:42:13;;;;;;;10.85;3.60;;;;;;;19.09;42.81;98706.41;5033622;28;20549;-28
2024/02/11 10:44:39;;;;;;;7.68;3.60;;;;;;;19.08;42.46;98704.81;5033406;28;20083;-27
2024/02/11 10:47:08;;;;;;;9.77;3.78;;;;;;;19.13;42.37;98696.66;5032480;28;20037;-28
2024/02/11 10:49:34;;;;;;;8.98;3.35;;;;;;;19.10;42.01;98687.25;5034288;28;20021;-29
2024/02/11 10:52:12;;;;;;;7.78;3.85;;;;;;;18.95;42.61;98684.72;5034488;28;20039;-28
2024/02/11 10:54:41;;;;;;;10.18;4.30;;;;;;;19.12;42.50;98687.78;5034094;28;20025;-27
2024/02/11 10:57:19;;;;;;;8.48;3.72;;;;;;;18.86;42.91;98686.41;5034265;28;20029;-30
2024/02/11 10:59:57;;;;;;;10.75;4.25;;;;;;;18.71;43.67;98680.03;5034413;28;20470;-27
2024/02/11 11:02:25;;;;;;;10.85;3.45;;;;;;;18.73;43.58;98685.13;5034458;28;20033;-27
2024/02/11 11:04:54;;;;;;;11.15;3.95;;;;;;;18.79;43.29;98686.72;5034713;28;20025;-27
2024/02/11 11:07:20;;;;;;;8.40;3.00;;;;;;;18.80;42.80;98682.13;5034247;28;20044;-27
2024/02/11 11:09:46;;;;;;;8.48;3.20;;;;;;;18.78;42.71;98668.94;5033991;28;20029;-27
2024/02/11 11:12:15;;;;;;;5.72;3.00;;;;;;;18.82;42.51;98671.91;5034032;28;20021;-27
2024/02/11 11:14:42;;;;;;;8.68;4.00;;;;;;;18.78;42.29;98660.84;5033890;28;20026;-26
2024/02/11 11:17:19;;;;;;;10.15;4.20;;;;;;;18.95;41.91;98663.16;5033279;28;20120;-26
2024/02/11 11:19:52;;;;;;;6.70;3.33;;;;;;;18.99;42.01;98668.78;5033348;28;20111;-27
2024/02/11 11:22:28;;;;;;;8.25;3.60;;;;;;;18.58;43.34;98661.81;5033375;28;20026;-28
2024/02/11 11:24:57;;;;;;;6.10;3.20;;;;;;;18.54;43.78;98660.78;5035704;28;20082;-28
2024/02/11 11:27:23;;;;;;;7.80;3.30;;;;;;;18.61;43.89;98666.66;5042349;28;20013;-27
2024/02/11 11:29:49;;;;;;;7.45;3.47;;;;;;;18.66;43.96;98655.84;5039622;28;20025;-38